Time;durP1;ratioP1;P1;durP2;ratioP2;P2;SDS_P1;SDS_P2;PMS_P1;PMS_P2;Temp;Humidity;BMP_temperature;BMP_pressure;BME280_temperature;BME280_humidity;BME280_pressure;Samples;Min_cycle;Max_cycle;Signal;HPM_P1;HPM_P2
2021/05/12 00:00:58;;;;;;;0.90;0.90;;;16.10;41.10;;;;;;10458174;28;20668;-70
2021/05/12 00:06:01;;;;;;;1.00;1.00;;;16.00;41.30;;;;;;10445751;28;20320;-70
2021/05/12 00:11:04;;;;;;;1.17;0.90;;;16.00;41.00;;;;;;10451334;28;20307;-70
2021/05/12 00:16:07;;;;;;;0.80;0.80;;;15.90;42.00;;;;;;10452982;28;20233;-70
2021/05/12 00:21:14;;;;;;;1.10;1.00;;;15.80;41.50;;;;;;10460914;28;20231;-70
2021/05/12 00:26:17;;;;;;;1.07;1.00;;;15.80;41.30;;;;;;10449624;28;20271;-70
2021/05/12 00:31:20;;;;;;;0.87;0.87;;;15.70;41.30;;;;;;10450170;28;20664;-70
2021/05/12 00:36:23;;;;;;;0.80;0.80;;;15.70;41.70;;;;;;10450713;28;20248;-70
2021/05/12 00:41:26;;;;;;;0.90;0.90;;;15.70;41.40;;;;;;10459398;28;20789;-70
2021/05/12 00:46:30;;;;;;;1.00;1.00;;;15.60;41.50;;;;;;10449017;28;20308;-70
2021/05/12 00:51:33;;;;;;;0.90;0.90;;;15.60;41.80;;;;;;10441673;28;20313;-70
2021/05/12 00:56:39;;;;;;;1.00;1.00;;;15.50;41.60;;;;;;10453666;28;20268;-70
2021/05/12 01:01:44;;;;;;;0.90;0.90;;;15.50;42.30;;;;;;10448621;28;20233;-70
2021/05/12 01:06:47;;;;;;;1.17;1.10;;;15.50;42.20;;;;;;10448147;28;20342;-70
2021/05/12 01:11:50;;;;;;;1.00;1.00;;;15.50;41.90;;;;;;10444577;28;20244;-72
2021/05/12 01:16:54;;;;;;;0.90;0.90;;;15.40;41.80;;;;;;10450466;28;20316;-72
2021/05/12 01:21:58;;;;;;;1.03;1.03;;;15.40;42.50;;;;;;10450040;28;20257;-72
2021/05/12 01:27:01;;;;;;;0.90;0.90;;;15.30;42.40;;;;;;10445187;28;20312;-72
2021/05/12 01:32:06;;;;;;;1.50;0.90;;;15.30;42.30;;;;;;10448867;28;20873;-72
2021/05/12 01:37:11;;;;;;;1.00;1.00;;;15.30;42.50;;;;;;10459734;28;20220;-72
2021/05/12 01:42:17;;;;;;;0.93;0.93;;;15.30;42.70;;;;;;10451902;28;20756;-72
2021/05/12 01:47:20;;;;;;;1.10;1.00;;;15.30;43.20;;;;;;10452947;28;20226;-72
2021/05/12 01:52:24;;;;;;;0.77;0.77;;;15.20;42.40;;;;;;10450606;28;20683;-72
2021/05/12 01:57:28;;;;;;;0.90;0.90;;;15.20;42.90;;;;;;10446892;28;20225;-72
2021/05/12 02:02:31;;;;;;;0.90;0.90;;;15.20;42.60;;;;;;10454617;28;20247;-72
2021/05/12 02:07:35;;;;;;;1.00;1.00;;;15.20;42.60;;;;;;10441905;28;20312;-72
2021/05/12 02:12:37;;;;;;;1.23;1.00;;;15.20;43.00;;;;;;10446513;28;20776;-72
2021/05/12 02:17:41;;;;;;;1.00;1.00;;;15.10;42.60;;;;;;10448410;28;20273;-72
2021/05/12 02:22:44;;;;;;;1.00;1.00;;;15.10;43.00;;;;;;10449311;28;20293;-72
2021/05/12 02:27:47;;;;;;;0.80;0.80;;;15.00;43.40;;;;;;10450901;28;20294;-72
2021/05/12 02:32:50;;;;;;;1.33;0.97;;;15.00;43.20;;;;;;10454423;28;20331;-72
2021/05/12 02:37:55;;;;;;;0.97;0.97;;;14.90;43.30;;;;;;10464510;28;20228;-72
2021/05/12 02:42:59;;;;;;;0.80;0.80;;;14.90;43.90;;;;;;10447661;28;20228;-72
2021/05/12 02:48:04;;;;;;;1.23;0.80;;;14.80;43.70;;;;;;10452823;28;20219;-72
2021/05/12 02:53:10;;;;;;;2.67;0.87;;;14.80;43.90;;;;;;10452831;28;20228;-72
2021/05/12 02:58:13;;;;;;;0.90;0.90;;;14.90;45.00;;;;;;10450280;28;20236;-72
2021/05/12 03:03:16;;;;;;;0.80;0.80;;;14.90;43.60;;;;;;10458722;28;20319;-72
2021/05/12 03:08:19;;;;;;;0.90;0.90;;;14.90;43.70;;;;;;10451364;28;20648;-72
2021/05/12 03:13:22;;;;;;;0.80;0.80;;;14.80;44.20;;;;;;10454147;28;20299;-72
2021/05/12 03:18:26;;;;;;;1.00;1.00;;;14.80;43.90;;;;;;10459153;28;20237;-72
2021/05/12 03:23:30;;;;;;;0.87;0.83;;;14.90;43.80;;;;;;10453767;28;20235;-72
2021/05/12 03:28:33;;;;;;;0.70;0.70;;;14.80;44.20;;;;;;10456258;28;20312;-72
2021/05/12 03:33:36;;;;;;;0.80;0.80;;;14.90;43.90;;;;;;10457860;28;20232;-72
2021/05/12 03:38:40;;;;;;;0.83;0.80;;;14.80;43.80;;;;;;10451945;28;20239;-72
2021/05/12 03:43:43;;;;;;;0.83;0.83;;;14.80;44.20;;;;;;10464367;28;20323;-72
2021/05/12 03:48:46;;;;;;;0.70;0.70;;;14.80;44.10;;;;;;10453434;28;20315;-72
2021/05/12 03:53:49;;;;;;;0.90;0.90;;;14.80;44.20;;;;;;10456134;28;20725;-72
2021/05/12 03:58:52;;;;;;;1.73;1.00;;;14.80;44.20;;;;;;10440779;28;20340;-72
2021/05/12 04:03:55;;;;;;;1.00;1.00;;;14.80;44.10;;;;;;10464606;28;20776;-72
2021/05/12 04:09:00;;;;;;;3.37;1.13;;;14.80;44.20;;;;;;10456042;28;20264;-72
2021/05/12 04:14:03;;;;;;;1.20;1.20;;;14.80;44.20;;;;;;10457268;28;20232;-72
2021/05/12 04:19:06;;;;;;;1.20;1.20;;;14.80;44.20;;;;;;10448432;28;20250;-72
2021/05/12 04:24:10;;;;;;;1.20;1.20;;;14.80;44.20;;;;;;10449656;28;20299;-72
2021/05/12 04:29:13;;;;;;;1.17;1.00;;;14.80;44.20;;;;;;10456089;28;20244;-72
2021/05/12 04:34:16;;;;;;;1.30;1.17;;;14.80;44.20;;;;;;10448684;28;20231;-72
2021/05/12 04:39:19;;;;;;;1.57;1.27;;;14.90;44.30;;;;;;10461576;28;20628;-72
2021/05/12 04:44:22;;;;;;;1.63;1.53;;;14.90;44.30;;;;;;10448542;28;20232;-72
2021/05/12 04:49:25;;;;;;;1.20;1.20;;;14.90;44.30;;;;;;10457899;28;20304;-72
2021/05/12 04:54:29;;;;;;;1.20;1.20;;;14.90;44.30;;;;;;10440460;28;20252;-72
2021/05/12 04:59:31;;;;;;;1.23;1.13;;;14.90;44.30;;;;;;10450900;28;20692;-72
2021/05/12 05:04:35;;;;;;;1.60;1.50;;;14.90;44.30;;;;;;10451649;28;20316;-72
2021/05/12 05:09:39;;;;;;;1.90;1.80;;;14.90;44.30;;;;;;10460155;28;20227;-72
2021/05/12 05:14:42;;;;;;;1.90;1.80;;;14.90;44.30;;;;;;10449277;28;20606;-72
2021/05/12 05:19:45;;;;;;;1.90;1.60;;;15.00;44.30;;;;;;10451507;28;20237;-72
2021/05/12 05:24:49;;;;;;;1.57;1.47;;;15.00;44.30;;;;;;10447048;28;20782;-72
2021/05/12 05:29:53;;;;;;;1.60;1.50;;;15.00;44.30;;;;;;10447079;28;20271;-72
2021/05/12 05:34:55;;;;;;;1.40;1.30;;;15.00;44.40;;;;;;10451442;28;20229;-72
2021/05/12 05:39:59;;;;;;;1.30;1.30;;;15.00;44.30;;;;;;10447452;28;20228;-72
2021/05/12 05:45:02;;;;;;;1.60;1.50;;;14.90;44.40;;;;;;10453996;28;20278;-72
2021/05/12 05:50:07;;;;;;;1.50;1.40;;;14.90;44.30;;;;;;10448606;28;20267;-72
2021/05/12 05:55:12;;;;;;;1.40;1.30;;;14.90;44.60;;;;;;10441697;28;20313;-72
2021/05/12 06:00:16;;;;;;;1.43;1.30;;;15.00;45.10;;;;;;10428442;28;20299;-72
2021/05/12 06:05:19;;;;;;;1.73;1.60;;;15.00;44.70;;;;;;10433784;28;20890;-73
2021/05/12 06:10:22;;;;;;;1.17;1.17;;;15.00;44.50;;;;;;10449472;28;20241;-72
2021/05/12 06:15:25;;;;;;;1.10;1.10;;;15.00;45.10;;;;;;10440059;28;20308;-73
2021/05/12 06:20:28;;;;;;;1.10;1.10;;;15.00;44.50;;;;;;10441681;28;20816;-73
2021/05/12 06:25:32;;;;;;;1.20;1.20;;;15.10;44.50;;;;;;10443629;28;20698;-72
2021/05/12 06:30:34;;;;;;;1.20;1.10;;;15.10;44.90;;;;;;10439271;28;20271;-72
2021/05/12 06:35:37;;;;;;;1.20;1.20;;;15.10;44.50;;;;;;10450143;28;20406;-72
2021/05/12 06:40:41;;;;;;;1.00;1.00;;;15.10;44.90;;;;;;10439187;28;20251;-72
2021/05/12 06:45:44;;;;;;;1.00;1.00;;;15.10;45.30;;;;;;10453134;28;20263;-73
2021/05/12 06:50:47;;;;;;;1.00;1.00;;;15.10;45.70;;;;;;10442841;28;20245;-73
2021/05/12 06:55:50;;;;;;;1.10;1.00;;;15.10;45.00;;;;;;10451045;28;20239;-73
2021/05/12 07:00:53;;;;;;;1.00;1.00;;;15.10;45.30;;;;;;10445580;28;20319;-73
2021/05/12 07:05:56;;;;;;;1.20;1.17;;;15.20;45.10;;;;;;10450044;28;20779;-73
2021/05/12 07:11:00;;;;;;;0.90;0.90;;;15.20;45.10;;;;;;10444906;28;20232;-71
2021/05/12 07:16:04;;;;;;;0.80;0.80;;;15.30;45.20;;;;;;10445298;28;20688;-71
2021/05/12 07:21:07;;;;;;;0.90;0.90;;;15.30;45.00;;;;;;10450126;28;20233;-72
2021/05/12 07:26:12;;;;;;;0.80;0.80;;;15.30;44.90;;;;;;10441137;28;20836;-75
2021/05/12 07:31:14;;;;;;;1.03;0.93;;;15.20;45.30;;;;;;10446182;28;20229;-74
2021/05/12 07:36:18;;;;;;;1.00;0.90;;;15.20;45.20;;;;;;10441296;28;20309;-74
2021/05/12 07:41:22;;;;;;;1.40;1.30;;;15.20;45.20;;;;;;10440243;28;21064;-73
2021/05/12 07:46:24;;;;;;;1.33;1.33;;;15.20;45.40;;;;;;10458203;28;20239;-73
2021/05/12 07:51:28;;;;;;;1.80;1.70;;;15.20;45.00;;;;;;10440919;28;20225;-72
2021/05/12 07:56:31;;;;;;;1.30;1.30;;;15.20;45.40;;;;;;10450052;28;20226;-72
2021/05/12 08:01:39;;;;;;;1.60;1.50;;;15.20;45.40;;;;;;10445517;28;20228;-72
2021/05/12 08:06:42;;;;;;;1.30;1.20;;;15.20;45.00;;;;;;10437917;28;20330;-72
2021/05/12 08:11:45;;;;;;;1.50;1.40;;;15.30;45.10;;;;;;10447372;28;20728;-71
2021/05/12 08:16:48;;;;;;;1.87;1.77;;;15.30;45.60;;;;;;10446933;28;20358;-75
2021/05/12 08:21:52;;;;;;;1.70;1.60;;;15.30;45.30;;;;;;10456697;28;20267;-75
2021/05/12 08:26:56;;;;;;;1.70;1.60;;;15.30;45.70;;;;;;10441290;28;20225;-75
2021/05/12 08:31:59;;;;;;;2.00;1.90;;;15.30;45.80;;;;;;10455051;28;20294;-76
2021/05/12 08:37:03;;;;;;;1.70;1.60;;;15.30;46.50;;;;;;10458719;28;20224;-76
2021/05/12 08:42:08;;;;;;;1.90;1.80;;;15.30;46.00;;;;;;10445242;28;20283;-76
2021/05/12 08:47:15;;;;;;;2.00;1.90;;;15.30;46.60;;;;;;10455707;28;20271;-76
2021/05/12 08:52:18;;;;;;;2.63;2.43;;;15.40;46.80;;;;;;10451954;28;20596;-75
2021/05/12 08:57:22;;;;;;;2.00;1.90;;;15.50;46.20;;;;;;10449452;28;20288;-75
2021/05/12 09:02:26;;;;;;;2.50;2.30;;;15.50;46.40;;;;;;10448395;28;20238;-75
2021/05/12 09:07:29;;;;;;;2.67;2.47;;;15.50;45.80;;;;;;10447099;28;20249;-75
2021/05/12 09:12:46;;;;;;;2.27;2.17;;;15.50;45.80;;;;;;10451259;28;20318;-75
2021/05/12 09:17:50;;;;;;;2.63;2.50;;;15.50;47.10;;;;;;10449678;28;20250;-75
2021/05/12 09:23:11;;;;;;;2.60;2.40;;;15.60;46.00;;;;;;10461898;28;20239;-74
2021/05/12 09:28:17;;;;;;;2.67;2.47;;;15.60;46.70;;;;;;10447419;28;20267;-76
2021/05/12 09:33:26;;;;;;;2.90;2.70;;;15.60;46.20;;;;;;10449249;28;20265;-75
2021/05/12 09:38:30;;;;;;;2.53;2.33;;;15.60;46.50;;;;;;10461798;28;20307;-75
2021/05/12 09:43:35;;;;;;;2.40;2.30;;;15.70;45.90;;;;;;10454626;28;20689;-76
2021/05/12 09:48:38;;;;;;;3.10;2.90;;;15.70;46.80;;;;;;10444440;28;20225;-75
2021/05/12 09:53:59;;;;;;;3.27;3.07;;;15.70;45.70;;;;;;10445297;28;20257;-75
2021/05/12 09:59:08;;;;;;;3.20;3.00;;;15.70;45.90;;;;;;10439241;28;20237;-75
2021/05/12 10:04:31;;;;;;;3.50;3.00;;;15.70;46.60;;;;;;10448786;28;20298;-70
2021/05/12 10:09:33;;;;;;;3.83;3.53;;;15.70;47.00;;;;;;10480482;28;20266;-70
2021/05/12 10:14:42;;;;;;;3.60;3.30;;;15.80;45.80;;;;;;10461791;28;20236;-70
2021/05/12 10:19:46;;;;;;;4.10;3.73;;;15.80;46.40;;;;;;10458037;28;20323;-71
2021/05/12 10:24:51;;;;;;;4.13;3.83;;;15.80;46.10;;;;;;10458888;28;20656;-70
2021/05/12 10:29:56;;;;;;;4.60;4.20;;;15.90;46.80;;;;;;10452042;28;20224;-70
2021/05/12 10:35:01;;;;;;;5.10;4.70;;;15.90;46.60;;;;;;10451189;28;20232;-71
2021/05/12 10:40:06;;;;;;;4.50;4.20;;;16.00;46.70;;;;;;10460742;28;20229;-71
2021/05/12 10:45:13;;;;;;;5.03;4.63;;;16.10;47.00;;;;;;10461385;28;20229;-71
2021/05/12 10:50:16;;;;;;;5.50;5.10;;;16.20;46.70;;;;;;10464583;28;20233;-71
2021/05/12 10:55:20;;;;;;;5.33;5.00;;;16.20;45.80;;;;;;10469068;28;20229;-71
2021/05/12 11:00:24;;;;;;;5.90;5.40;;;16.20;46.10;;;;;;10461252;28;20233;-71
2021/05/12 11:05:58;;;;;;;5.57;5.17;;;16.20;46.30;;;;;;10463649;28;20245;-71
2021/05/12 11:11:03;;;;;;;5.67;5.17;;;16.20;46.50;;;;;;10468578;28;20232;-71
2021/05/12 11:16:07;;;;;;;5.60;5.10;;;16.20;46.00;;;;;;10457084;28;20232;-71
2021/05/12 11:21:26;;;;;;;5.80;5.30;;;16.10;45.80;;;;;;10460390;28;20298;-71
2021/05/12 11:26:45;;;;;;;5.57;5.17;;;16.10;46.20;;;;;;10459194;28;20230;-71
2021/05/12 11:31:55;;;;;;;6.00;5.50;;;16.10;45.40;;;;;;10454201;28;20850;-71
2021/05/12 11:37:08;;;;;;;6.20;5.70;;;16.00;46.00;;;;;;10459489;28;20221;-68
2021/05/12 11:42:30;;;;;;;6.07;5.67;;;16.00;46.30;;;;;;10450909;28;20304;-71
2021/05/12 11:47:36;;;;;;;7.00;6.50;;;16.00;46.00;;;;;;10453753;28;20230;-71
2021/05/12 11:52:39;;;;;;;8.13;7.43;;;16.00;45.80;;;;;;10458519;28;20221;-72
2021/05/12 11:57:45;;;;;;;7.37;6.67;;;16.00;45.60;;;;;;10441014;28;20217;-71
2021/05/12 12:02:57;;;;;;;7.30;6.70;;;16.00;46.50;;;;;;10447594;28;20225;-73
2021/05/12 12:08:09;;;;;;;7.47;6.87;;;16.00;46.70;;;;;;10456777;28;20376;-71
2021/05/12 12:13:14;;;;;;;7.23;6.63;;;16.00;46.90;;;;;;10453111;28;20352;-71
2021/05/12 12:18:27;;;;;;;7.60;6.87;;;16.10;46.40;;;;;;10457852;28;20217;-71
2021/05/12 12:23:32;;;;;;;8.03;7.33;;;16.10;46.80;;;;;;10452792;28;20228;-71
2021/05/12 12:28:35;;;;;;;7.47;6.87;;;16.20;46.20;;;;;;10444653;28;20312;-71
2021/05/12 12:33:39;;;;;;;7.60;7.00;;;16.20;46.00;;;;;;10444004;28;20294;-70
2021/05/12 12:38:50;;;;;;;7.50;6.90;;;16.20;46.00;;;;;;10452534;28;20225;-74
2021/05/12 12:43:53;;;;;;;7.83;7.13;;;16.20;46.60;;;;;;10446004;28;20229;-73
2021/05/12 12:48:57;;;;;;;7.93;7.27;;;16.20;45.80;;;;;;10457055;28;20307;-74
2021/05/12 12:54:03;;;;;;;7.43;6.77;;;16.20;45.80;;;;;;10452913;28;20645;-74
2021/05/12 12:59:10;;;;;;;7.20;6.60;;;16.20;45.50;;;;;;10451630;28;20220;-73
2021/05/12 13:04:18;;;;;;;6.77;6.23;;;16.10;45.80;;;;;;10454494;28;20236;-73
2021/05/12 13:09:25;;;;;;;7.07;6.50;;;16.10;45.50;;;;;;10455395;28;20241;-73
2021/05/12 13:14:28;;;;;;;6.70;6.17;;;16.00;45.80;;;;;;10457161;28;20665;-73
2021/05/12 13:19:39;;;;;;;7.70;7.00;;;16.00;45.40;;;;;;10459176;28;20216;-74
2021/05/12 13:24:42;;;;;;;8.00;7.20;;;16.00;46.30;;;;;;10448115;28;20225;-73
2021/05/12 13:29:47;;;;;;;7.57;6.90;;;15.90;45.20;;;;;;10457314;28;20231;-74
2021/05/12 13:34:51;;;;;;;8.63;7.93;;;15.90;45.50;;;;;;10444789;28;20290;-73
2021/05/12 13:39:55;;;;;;;8.47;7.77;;;15.90;46.20;;;;;;10452473;28;20256;-73
2021/05/12 13:44:58;;;;;;;8.43;7.73;;;15.80;45.80;;;;;;10464014;28;20312;-73
2021/05/12 13:50:01;;;;;;;9.80;8.83;;;15.80;45.80;;;;;;10448708;28;20233;-73
2021/05/12 13:55:09;;;;;;;8.20;7.43;;;15.80;46.30;;;;;;10452318;28;20221;-73
2021/05/12 14:00:22;;;;;;;7.80;7.10;;;15.80;46.10;;;;;;10456433;28;20650;-73
2021/05/12 14:05:26;;;;;;;8.03;7.43;;;15.80;45.90;;;;;;10451517;28;20247;-73
2021/05/12 14:10:34;;;;;;;7.73;7.03;;;15.80;46.10;;;;;;10453923;28;20249;-73
2021/05/12 14:16:02;;;;;;;7.40;6.80;;;15.80;46.10;;;;;;10457252;28;20220;-73
2021/05/12 14:21:07;;;;;;;7.07;6.50;;;15.70;46.10;;;;;;10454301;28;20250;-72
2021/05/12 14:26:10;;;;;;;7.67;7.10;;;15.80;46.50;;;;;;10451220;28;20248;-71
2021/05/12 14:31:12;;;;;;;7.77;7.17;;;15.80;46.20;;;;;;10439699;28;20683;-74
2021/05/12 14:36:17;;;;;;;7.10;6.60;;;15.80;46.20;;;;;;10438847;28;20736;-74
2021/05/12 14:41:19;;;;;;;8.00;7.40;;;15.80;46.50;;;;;;10441263;28;20221;-73
2021/05/12 14:46:22;;;;;;;8.63;7.83;;;15.80;46.20;;;;;;10454495;28;20229;-73
2021/05/12 14:51:28;;;;;;;8.77;8.07;;;15.80;46.10;;;;;;10447145;28;20256;-74
2021/05/12 14:56:39;;;;;;;9.33;8.53;;;15.80;46.10;;;;;;10440325;28;20226;-73
2021/05/12 15:07:11;;;;;;;10.50;9.60;;;15.80;45.90;;;;;;10465168;28;20232;-73
2021/05/12 15:12:14;;;;;;;9.80;9.00;;;15.70;46.30;;;;;;10453704;28;20312;-76
2021/05/12 15:17:17;;;;;;;10.47;9.67;;;15.70;46.40;;;;;;10459013;28;20238;-73
2021/05/12 15:22:20;;;;;;;10.27;9.47;;;15.70;46.50;;;;;;10453121;28;20238;-73
2021/05/12 15:27:23;;;;;;;9.73;8.93;;;15.70;46.80;;;;;;10448937;28;20278;-73
2021/05/12 15:32:26;;;;;;;10.73;9.83;;;15.70;46.50;;;;;;10465265;28;20264;-73
2021/05/12 15:37:30;;;;;;;10.27;9.47;;;15.80;46.50;;;;;;10460393;28;20255;-73
2021/05/12 15:42:33;;;;;;;10.07;9.27;;;15.70;46.50;;;;;;10462489;28;20324;-71
2021/05/12 15:47:35;;;;;;;9.20;8.50;;;15.80;46.70;;;;;;10462597;28;20492;-70
2021/05/12 15:52:39;;;;;;;10.53;9.63;;;15.80;46.60;;;;;;10447741;28;20603;-70
2021/05/12 15:57:43;;;;;;;8.30;7.60;;;15.80;47.00;;;;;;10455566;28;20273;-70
2021/05/12 16:02:46;;;;;;;9.43;8.53;;;15.80;46.60;;;;;;10457646;28;20993;-70
2021/05/12 16:07:50;;;;;;;8.77;7.97;;;15.90;46.50;;;;;;10462578;28;20237;-70
2021/05/12 16:12:52;;;;;;;9.07;8.23;;;15.80;46.60;;;;;;10454113;28;20779;-70
2021/05/12 16:17:56;;;;;;;8.97;8.17;;;15.80;46.50;;;;;;10460556;28;20290;-70
2021/05/12 16:23:00;;;;;;;9.27;8.47;;;15.80;46.60;;;;;;10459934;28;20235;-70
2021/05/12 16:28:04;;;;;;;10.33;9.47;;;15.80;46.80;;;;;;10459468;28;20221;-70
2021/05/12 16:33:07;;;;;;;11.53;10.40;;;15.80;46.10;;;;;;10455563;28;20278;-70
2021/05/12 16:38:11;;;;;;;14.20;12.93;;;15.80;45.90;;;;;;10457222;28;20244;-70
2021/05/12 16:43:14;;;;;;;12.47;11.37;;;15.80;46.20;;;;;;10461314;28;20240;-70
2021/05/12 16:48:17;;;;;;;11.83;10.83;;;15.80;46.10;;;;;;10453140;28;20225;-70
2021/05/12 16:53:21;;;;;;;10.77;9.87;;;15.70;46.00;;;;;;10450254;28;20240;-71
2021/05/12 16:58:24;;;;;;;12.10;10.90;;;15.70;46.30;;;;;;10454810;28;20279;-70
2021/05/12 17:03:27;;;;;;;12.23;11.13;;;15.70;46.20;;;;;;10456220;28;20731;-70
2021/05/12 17:08:31;;;;;;;8.93;8.03;;;15.70;45.90;;;;;;10456882;28;21166;-70
2021/05/12 17:13:34;;;;;;;10.27;9.27;;;15.70;45.40;;;;;;10447593;28;20251;-70
2021/05/12 17:18:37;;;;;;;9.47;8.47;;;15.60;45.40;;;;;;10447009;28;20236;-70
2021/05/12 17:23:40;;;;;;;8.10;7.43;;;15.50;45.60;;;;;;10457099;28;20315;-70
2021/05/12 17:28:45;;;;;;;8.67;7.87;;;15.50;45.70;;;;;;10455575;28;20225;-70
2021/05/12 17:33:48;;;;;;;9.60;8.70;;;15.50;45.60;;;;;;10448064;28;20237;-70
2021/05/12 17:38:52;;;;;;;8.47;7.67;;;15.50;45.80;;;;;;10460226;28;20320;-71
2021/05/12 17:43:55;;;;;;;8.27;7.50;;;15.40;45.80;;;;;;10454722;28;20673;-70
2021/05/12 17:48:57;;;;;;;7.70;7.10;;;15.40;45.70;;;;;;10455285;28;20223;-69
2021/05/12 17:54:02;;;;;;;7.20;6.50;;;15.40;45.70;;;;;;10449663;28;20231;-69
2021/05/12 17:59:05;;;;;;;6.90;6.20;;;15.30;45.50;;;;;;10447489;28;20231;-69
2021/05/12 18:04:12;;;;;;;6.73;6.23;;;15.40;45.50;;;;;;10446514;28;20256;-69
2021/05/12 18:09:16;;;;;;;6.23;5.63;;;15.30;45.60;;;;;;10456121;28;20283;-70
2021/05/12 18:19:43;;;;;;;6.30;5.70;;;15.30;45.30;;;;;;10447381;28;20785;-69
2021/05/12 18:24:47;;;;;;;6.33;5.73;;;15.30;45.30;;;;;;10451152;28;20251;-69
2021/05/12 18:29:50;;;;;;;6.43;5.80;;;15.30;45.50;;;;;;10457613;28;20916;-69
2021/05/12 18:34:56;;;;;;;5.63;5.13;;;15.30;45.30;;;;;;10438603;28;20649;-70
2021/05/12 18:40:01;;;;;;;7.17;6.60;;;15.20;45.30;;;;;;10456033;28;20302;-70
2021/05/12 18:45:09;;;;;;;8.13;6.80;;;15.20;45.40;;;;;;10460157;28;20327;-70
2021/05/12 18:50:11;;;;;;;6.97;6.37;;;15.20;45.60;;;;;;10451986;28;20689;-71
2021/05/12 18:55:16;;;;;;;6.70;6.10;;;15.20;45.50;;;;;;10460830;28;20320;-71
2021/05/12 19:00:20;;;;;;;6.60;5.93;;;15.20;46.40;;;;;;10448503;28;20231;-71
2021/05/12 19:05:29;;;;;;;7.07;6.10;;;15.20;45.70;;;;;;10451515;28;20232;-71
2021/05/12 19:10:37;;;;;;;6.83;6.13;;;15.20;45.50;;;;;;10456930;28;20243;-71
2021/05/12 19:15:46;;;;;;;5.80;5.30;;;15.20;45.50;;;;;;10464264;28;20574;-72
2021/05/12 19:20:54;;;;;;;5.97;5.47;;;15.20;45.30;;;;;;10447610;28;20322;-72
2021/05/12 19:26:05;;;;;;;6.87;6.27;;;15.20;45.40;;;;;;10451777;28;20621;-72
2021/05/12 19:41:50;;;;;;;6.67;6.07;;;15.10;45.20;;;;;;10461524;28;20766;-71
2021/05/12 19:46:53;;;;;;;7.23;6.53;;;15.00;45.40;;;;;;10454432;28;20233;-71
2021/05/12 19:51:57;;;;;;;6.60;5.93;;;15.00;45.30;;;;;;10464662;28;20243;-71
2021/05/12 20:02:20;;;;;;;7.90;7.20;;;15.00;45.70;;;;;;10458779;28;20307;-71
2021/05/12 20:07:28;;;;;;;7.77;7.10;;;15.00;45.60;;;;;;10452328;28;20316;-71
2021/05/12 20:12:34;;;;;;;6.27;5.77;;;15.00;45.50;;;;;;10457901;28;20235;-71
2021/05/12 20:17:37;;;;;;;7.10;6.50;;;15.00;45.60;;;;;;10445797;28;20312;-71
2021/05/12 20:22:40;;;;;;;6.97;6.27;;;14.90;45.50;;;;;;10448653;28;20298;-71
2021/05/12 20:27:44;;;;;;;7.03;6.40;;;14.90;45.50;;;;;;10458331;28;20236;-71
2021/05/12 20:32:52;;;;;;;7.17;6.57;;;14.90;45.70;;;;;;10448985;28;20237;-71
2021/05/12 20:37:54;;;;;;;7.03;6.37;;;14.90;45.50;;;;;;10453426;28;20315;-71
2021/05/12 20:43:02;;;;;;;6.90;6.30;;;14.90;45.40;;;;;;10448812;28;20255;-71
2021/05/12 20:48:05;;;;;;;6.97;6.37;;;14.90;45.80;;;;;;10447527;28;20233;-72
2021/05/12 20:53:08;;;;;;;6.57;6.07;;;14.80;45.50;;;;;;10448176;28;20784;-71
2021/05/12 20:58:13;;;;;;;7.33;6.63;;;14.80;45.50;;;;;;10448451;28;21100;-71
2021/05/12 21:03:17;;;;;;;7.33;6.67;;;14.70;45.80;;;;;;10455451;28;20236;-71
2021/05/12 21:08:20;;;;;;;7.87;7.27;;;14.70;45.50;;;;;;10449560;28;20431;-71
2021/05/12 21:13:23;;;;;;;7.37;6.67;;;14.60;45.50;;;;;;10451627;28;20232;-71
2021/05/12 21:18:27;;;;;;;8.07;7.27;;;14.60;45.90;;;;;;10448665;28;20327;-71
2021/05/12 21:23:35;;;;;;;7.23;6.63;;;14.60;45.80;;;;;;10442954;28;20524;-71
2021/05/12 21:28:39;;;;;;;7.40;6.60;;;14.60;45.80;;;;;;10454934;28;20693;-71
2021/05/12 21:33:43;;;;;;;7.77;7.07;;;14.50;45.90;;;;;;10441687;28;20235;-71
2021/05/12 21:38:49;;;;;;;8.27;7.53;;;14.50;45.90;;;;;;10448054;28;20316;-71
2021/05/12 21:43:52;;;;;;;7.93;7.23;;;14.50;46.00;;;;;;10437346;28;20323;-71
2021/05/12 21:48:55;;;;;;;8.90;8.00;;;14.50;46.10;;;;;;10450017;28;20221;-71
2021/05/12 21:53:58;;;;;;;7.53;6.83;;;14.50;45.90;;;;;;10467504;28;20789;-70
2021/05/12 21:59:02;;;;;;;7.90;7.20;;;14.60;45.90;;;;;;10488226;28;20336;-71
2021/05/12 22:04:06;;;;;;;8.53;7.73;;;14.50;46.00;;;;;;10487234;28;20255;-71
2021/05/12 22:09:42;;;;;;;8.13;7.00;;;14.50;45.90;;;;;;10487738;28;20235;-71
2021/05/12 22:25:56;;;;;;;9.00;8.10;;;14.50;46.00;;;;;;10487929;28;20595;-71
2021/05/12 22:30:59;;;;;;;8.63;7.87;;;14.50;46.00;;;;;;10487981;28;20315;-70
2021/05/12 22:36:02;;;;;;;8.13;7.37;;;14.40;46.20;;;;;;10487540;28;20224;-71
2021/05/12 22:41:05;;;;;;;8.40;7.40;;;14.50;46.10;;;;;;10487491;28;20281;-71
2021/05/12 22:46:09;;;;;;;8.23;7.43;;;14.50;46.10;;;;;;10487425;28;20263;-71
2021/05/12 22:51:12;;;;;;;8.37;7.57;;;14.50;46.10;;;;;;10487101;28;20293;-71
2021/05/12 22:56:28;;;;;;;7.80;7.10;;;14.50;46.00;;;;;;10486897;28;20228;-71
2021/05/12 23:01:32;;;;;;;7.27;6.57;;;14.50;45.80;;;;;;10486806;28;20257;-70
2021/05/12 23:06:35;;;;;;;8.53;7.73;;;14.50;45.90;;;;;;10487160;28;20225;-71
2021/05/12 23:11:38;;;;;;;8.37;7.57;;;14.50;45.80;;;;;;10486492;28;20255;-71
2021/05/12 23:16:41;;;;;;;8.97;8.07;;;14.50;45.80;;;;;;10490141;28;20229;-71
2021/05/12 23:21:44;;;;;;;8.40;7.63;;;14.50;45.80;;;;;;10495982;28;20232;-71
2021/05/12 23:26:47;;;;;;;8.47;7.30;;;14.50;45.80;;;;;;10496509;28;20232;-71
2021/05/12 23:31:51;;;;;;;8.70;7.90;;;14.50;45.80;;;;;;10496342;28;20232;-71
2021/05/12 23:36:54;;;;;;;7.37;6.70;;;14.50;45.90;;;;;;10496332;28;20230;-70
2021/05/12 23:42:03;;;;;;;8.53;7.83;;;14.50;45.80;;;;;;10496346;28;20228;-70
2021/05/12 23:47:06;;;;;;;8.13;7.43;;;14.50;45.90;;;;;;10495758;28;20637;-71
2021/05/12 23:52:09;;;;;;;8.50;7.80;;;14.40;45.80;;;;;;10495740;28;20312;-71
2021/05/12 23:57:12;;;;;;;8.43;7.63;;;14.40;45.60;;;;;;10495685;28;20608;-71
